Time;durP1;ratioP1;P1;durP2;ratioP2;P2;SDS_P1;SDS_P2;PMS_P1;PMS_P2;Temp;Humidity;BMP_temperature;BMP_pressure;BME280_temperature;BME280_humidity;BME280_pressure;Samples;Min_cycle;Max_cycle;Signal;HPM_P1;HPM_P2
2022/08/12 06:12:10;;;;;;;10.20;5.10;;;;;;;;;;10642340;28;20119;-82
2022/08/12 06:17:49;;;;;;;6.57;4.57;;;;;;;;;;10471111;28;20045;-82
2022/08/12 06:23:01;;;;;;;8.38;5.90;;;;;;;;;;10620330;28;20091;-83
2022/08/12 06:28:21;;;;;;;;;;;;;;;;;;10614579;28;20031;-81
2022/08/12 06:33:37;;;;;;;12.07;7.18;;;;;;;;;;10643731;28;19910;-80
2022/08/12 06:38:51;;;;;;;9.88;8.13;;;;;;;;;;10633729;28;20034;-80
2022/08/12 06:44:06;;;;;;;10.60;7.00;;;;;;;;;;10646441;27;20036;-80
2022/08/12 06:49:16;;;;;;;9.02;5.80;;;;;;;;;;10624952;28;20500;-83
2022/08/12 06:54:44;;;;;;;7.53;6.35;;;;;;;;;;10638698;28;20036;-81
2022/08/12 06:59:51;;;;;;;5.88;4.35;;;;;;;;;;10632820;28;20020;-82
2022/08/12 07:04:52;;;;;;;7.30;4.78;;;;;;;;;;10610455;28;20038;-84
2022/08/12 07:09:53;;;;;;;7.38;4.60;;;;;;;;;;10583478;28;20144;-85
2022/08/12 07:14:54;;;;;;;6.28;4.13;;;;;;;;;;10590256;28;20051;-85
2022/08/12 07:20:23;;;;;;;7.05;4.63;;;;;;;;;;10596706;28;20043;-86
2022/08/12 07:25:30;;;;;;;5.68;4.18;;;;;;;;;;10580286;28;20031;-86
2022/08/12 07:30:32;;;;;;;8.45;6.38;;;;;;;;;;10584589;28;20022;-86
2022/08/12 07:35:44;;;;;;;9.40;4.28;;;;;;;;;;10578399;28;20023;-85
2022/08/12 07:40:45;;;;;;;7.07;4.20;;;;;;;;;;10581304;28;20023;-85
2022/08/12 07:45:46;;;;;;;6.13;4.60;;;;;;;;;;10583315;28;20016;-85
2022/08/12 07:50:47;;;;;;;6.45;4.13;;;;;;;;;;10580251;28;20119;-85
2022/08/12 07:55:48;;;;;;;7.00;3.97;;;;;;;;;;10579629;28;20020;-84
2022/08/12 08:00:49;;;;;;;9.48;4.70;;;;;;;;;;10580894;28;20032;-84
2022/08/12 08:05:51;;;;;;;8.57;4.93;;;;;;;;;;10628619;27;20015;-83
2022/08/12 08:12:52;;;;;;;4.45;3.88;;;;;;;;;;10617146;27;20049;-83
2022/08/12 08:16:18;;;;;;;8.85;4.13;;;;;;;;;;10610181;27;20349;-85
2022/08/12 08:21:20;;;;;;;6.10;4.40;;;;;;;;;;10577232;28;20020;-84
2022/08/12 08:26:24;;;;;;;12.27;5.63;;;;;;;;;;10574970;28;20020;-86
2022/08/12 08:31:25;;;;;;;7.10;4.70;;;;;;;;;;10599726;27;20363;-86
2022/08/12 08:36:26;;;;;;;10.43;7.28;;;;;;;;;;10568971;28;20037;-86
2022/08/12 08:46:48;;;;;;;9.23;4.75;;;;;;;;;;10589141;28;20036;-86
2022/08/12 08:51:49;;;;;;;21.08;13.05;;;;;;;;;;10569574;28;20679;-85
2022/08/12 08:56:51;;;;;;;11.07;5.22;;;;;;;;;;10571512;28;20104;-87
2022/08/12 09:01:52;;;;;;;6.93;4.57;;;;;;;;;;10570123;28;20027;-86
2022/08/12 09:06:55;;;;;;;8.27;4.38;;;;;;;;;;10568820;28;20059;-85
2022/08/12 09:17:17;;;;;;;7.55;3.55;;;;;;;;;;10589033;28;20073;-85
2022/08/12 09:22:19;;;;;;;7.35;4.63;;;;;;;;;;10569664;28;20359;-82
2022/08/12 09:27:20;;;;;;;5.25;4.03;;;;;;;;;;10571294;28;20050;-82
2022/08/12 09:32:21;;;;;;;11.00;4.07;;;;;;;;;;10570080;28;20050;-83
2022/08/12 09:37:25;;;;;;;6.22;3.20;;;;;;;;;;10571259;28;20118;-83
2022/08/12 09:48:07;;;;;;;5.45;2.85;;;;;;;;;;10594277;28;20039;-83
2022/08/12 09:53:09;;;;;;;4.18;2.78;;;;;;;;;;10578638;28;20035;-83
2022/08/12 09:58:10;;;;;;;3.03;2.10;;;;;;;;;;10573344;28;20032;-82
2022/08/12 10:03:14;;;;;;;4.43;2.20;;;;;;;;;;10573889;28;20039;-83
2022/08/12 10:08:17;;;;;;;6.85;2.80;;;;;;;;;;10571430;28;20074;-83
2022/08/12 10:18:41;;;;;;;3.55;2.65;;;;;;;;;;10595667;28;20155;-83
2022/08/12 10:23:43;;;;;;;4.28;2.40;;;;;;;;;;10572016;28;20015;-82
2022/08/12 10:34:04;;;;;;;6.35;2.50;;;;;;;;;;10598803;28;20028;-83
2022/08/12 10:39:06;;;;;;;7.80;3.20;;;;;;;;;;10586389;28;20095;-82
2022/08/12 10:44:11;;;;;;;3.42;2.33;;;;;;;;;;10584866;28;20114;-81
2022/08/12 10:49:12;;;;;;;3.80;2.85;;;;;;;;;;10591905;27;20027;-83
2022/08/12 10:54:13;;;;;;;5.57;2.50;;;;;;;;;;10595786;28;20233;-82
2022/08/12 10:59:20;;;;;;;5.78;2.50;;;;;;;;;;10595026;28;20484;-83
2022/08/12 11:04:21;;;;;;;3.95;2.88;;;;;;;;;;10600007;28;20032;-82
2022/08/12 11:09:26;;;;;;;3.83;2.50;;;;;;;;;;10596909;28;20045;-82
2022/08/12 11:14:41;;;;;;;9.05;3.20;;;;;;;;;;10607048;28;20023;-82
2022/08/12 11:19:44;;;;;;;5.63;2.60;;;;;;;;;;10591638;28;20105;-82
2022/08/12 11:24:45;;;;;;;5.32;2.58;;;;;;;;;;10590249;28;20044;-83
2022/08/12 11:29:46;;;;;;;4.13;2.55;;;;;;;;;;10587792;28;20039;-83
2022/08/12 11:34:48;;;;;;;4.93;2.53;;;;;;;;;;10590099;28;20073;-84
2022/08/12 11:39:49;;;;;;;3.03;2.40;;;;;;;;;;10588662;28;20049;-81
2022/08/12 11:44:51;;;;;;;3.13;2.50;;;;;;;;;;10589475;28;20024;-82
2022/08/12 11:49:52;;;;;;;2.92;2.40;;;;;;;;;;10591169;28;20059;-81
2022/08/12 11:54:53;;;;;;;8.65;2.42;;;;;;;;;;10616337;27;20016;-82
2022/08/12 11:59:54;;;;;;;3.33;2.58;;;;;;;;;;10625043;27;20089;-84
2022/08/12 12:04:55;;;;;;;9.20;2.50;;;;;;;;;;10581337;28;20046;-84
2022/08/12 12:09:57;;;;;;;5.20;2.50;;;;;;;;;;10582873;28;20073;-82
2022/08/12 12:14:59;;;;;;;3.35;2.38;;;;;;;;;;10589725;28;20020;-83
2022/08/12 12:20:00;;;;;;;3.33;2.30;;;;;;;;;;10585747;28;20074;-81
2022/08/12 12:25:01;;;;;;;6.28;3.10;;;;;;;;;;10585720;28;20385;-82
2022/08/12 12:30:04;;;;;;;3.45;2.30;;;;;;;;;;10582524;28;20027;-83
2022/08/12 12:35:05;;;;;;;6.07;2.33;;;;;;;;;;10581915;28;20047;-82
2022/08/12 12:40:06;;;;;;;6.85;2.20;;;;;;;;;;10583387;28;20023;-82
2022/08/12 12:45:08;;;;;;;4.00;2.67;;;;;;;;;;10580186;28;20024;-83
2022/08/12 12:50:09;;;;;;;3.25;2.22;;;;;;;;;;10598496;28;20020;-82
2022/08/12 12:55:10;;;;;;;5.63;1.90;;;;;;;;;;10580652;28;20385;-82
2022/08/12 13:00:14;;;;;;;3.60;2.00;;;;;;;;;;10581807;28;20095;-82
2022/08/12 13:05:15;;;;;;;4.03;1.90;;;;;;;;;;10583231;28;20481;-83
2022/08/12 13:10:16;;;;;;;2.00;1.73;;;;;;;;;;10581230;28;20055;-83
2022/08/12 13:15:18;;;;;;;3.00;1.90;;;;;;;;;;10599934;28;20024;-82
2022/08/12 13:20:21;;;;;;;5.10;2.13;;;;;;;;;;10565983;28;20031;-82
2022/08/12 13:25:23;;;;;;;6.80;3.90;;;;;;;;;;10567081;28;20028;-83
2022/08/12 13:30:24;;;;;;;5.15;2.67;;;;;;;;;;10575870;28;20020;-83
2022/08/12 13:35:28;;;;;;;3.00;1.67;;;;;;;;;;10592446;28;20031;-82
2022/08/12 13:40:33;;;;;;;3.72;1.70;;;;;;;;;;10571791;28;20451;-83
2022/08/12 13:45:34;;;;;;;4.15;1.73;;;;;;;;;;10575514;28;20027;-85
2022/08/12 13:50:39;;;;;;;6.40;2.10;;;;;;;;;;10597748;28;20019;-82
2022/08/12 13:55:45;;;;;;;6.63;1.80;;;;;;;;;;10574294;28;20401;-81
2022/08/12 14:00:49;;;;;;;3.90;1.80;;;;;;;;;;10591608;28;20073;-83
2022/08/12 14:05:50;;;;;;;3.15;1.90;;;;;;;;;;10573758;28;20031;-82
2022/08/12 14:10:54;;;;;;;3.28;1.77;;;;;;;;;;10574117;28;20027;-83
2022/08/12 14:15:59;;;;;;;17.63;14.68;;;;;;;;;;10574029;28;20054;-84
2022/08/12 14:21:11;;;;;;;4.03;2.00;;;;;;;;;;10600592;28;20428;-83
2022/08/12 14:26:16;;;;;;;3.50;2.90;;;;;;;;;;10581671;28;20016;-83
2022/08/12 14:31:17;;;;;;;6.30;2.10;;;;;;;;;;10606358;28;20077;-83
2022/08/12 14:36:20;;;;;;;5.28;1.83;;;;;;;;;;10604732;28;20026;-82
2022/08/12 14:41:22;;;;;;;4.13;2.08;;;;;;;;;;10600430;28;20015;-82
2022/08/12 14:46:24;;;;;;;3.88;1.98;;;;;;;;;;10582593;28;20037;-83
2022/08/12 14:51:25;;;;;;;4.95;1.80;;;;;;;;;;10581569;28;20469;-83
2022/08/12 14:56:27;;;;;;;2.80;1.85;;;;;;;;;;10593868;28;20039;-81
2022/08/12 15:01:38;;;;;;;2.75;1.77;;;;;;;;;;10582268;28;20107;-82
2022/08/12 15:06:43;;;;;;;2.42;1.73;;;;;;;;;;10578722;28;20438;-81
2022/08/12 15:11:46;;;;;;;8.18;2.13;;;;;;;;;;10563263;28;20051;-81
2022/08/12 15:16:48;;;;;;;2.83;1.90;;;;;;;;;;10578569;28;20019;-81
2022/08/12 15:21:49;;;;;;;3.55;2.00;;;;;;;;;;10577297;28;20020;-80
2022/08/12 15:26:50;;;;;;;3.50;2.20;;;;;;;;;;10576927;28;20136;-81
2022/08/12 15:31:51;;;;;;;4.53;2.20;;;;;;;;;;10578710;28;20189;-80
2022/08/12 15:36:52;;;;;;;4.97;2.00;;;;;;;;;;10580587;28;20160;-80
2022/08/12 15:41:53;;;;;;;4.40;2.22;;;;;;;;;;10579278;28;20024;-81
2022/08/12 15:46:54;;;;;;;3.10;2.00;;;;;;;;;;10578438;28;20366;-81
2022/08/12 15:51:55;;;;;;;5.32;3.55;;;;;;;;;;10577587;28;20491;-80
2022/08/12 15:56:56;;;;;;;4.75;2.28;;;;;;;;;;10580753;28;20033;-84
2022/08/12 16:01:57;;;;;;;4.40;2.20;;;;;;;;;;10578641;28;20055;-83
2022/08/12 16:06:58;;;;;;;3.63;2.00;;;;;;;;;;10578262;28;20035;-83
2022/08/12 16:12:02;;;;;;;3.72;2.10;;;;;;;;;;10596293;28;20031;-80
2022/08/12 16:17:03;;;;;;;6.63;3.47;;;;;;;;;;10597753;28;20035;-81
2022/08/12 16:22:04;;;;;;;3.67;1.90;;;;;;;;;;10614122;28;20113;-80
2022/08/12 16:27:05;;;;;;;5.75;3.47;;;;;;;;;;10608565;28;20028;-81
2022/08/12 16:32:06;;;;;;;3.55;2.00;;;;;;;;;;10605128;28;20118;-81
2022/08/12 16:37:12;;;;;;;3.65;2.63;;;;;;;;;;10581267;28;20028;-81
2022/08/12 16:42:14;;;;;;;4.47;2.30;;;;;;;;;;10597875;28;20015;-82
2022/08/12 16:47:15;;;;;;;4.60;2.83;;;;;;;;;;10601515;27;20031;-80
2022/08/12 16:52:17;;;;;;;3.60;2.45;;;;;;;;;;10624171;27;20140;-81
2022/08/12 16:57:19;;;;;;;3.28;2.20;;;;;;;;;;10589860;28;20058;-81
2022/08/12 17:02:20;;;;;;;2.38;1.67;;;;;;;;;;10607626;28;20361;-81
2022/08/12 17:07:21;;;;;;;4.82;2.72;;;;;;;;;;10591087;28;20129;-81
2022/08/12 17:12:22;;;;;;;2.75;2.25;;;;;;;;;;10606974;28;20050;-82
2022/08/12 17:17:38;;;;;;;4.07;2.17;;;;;;;;;;10585491;28;20028;-82
2022/08/12 17:22:40;;;;;;;4.70;2.30;;;;;;;;;;10571056;28;20050;-82
2022/08/12 17:27:45;;;;;;;4.13;1.75;;;;;;;;;;10608411;28;20034;-83
2022/08/12 17:32:46;;;;;;;4.35;2.42;;;;;;;;;;10589878;28;20023;-83
2022/08/12 17:37:49;;;;;;;3.63;2.20;;;;;;;;;;10591984;28;20087;-82
2022/08/12 17:42:50;;;;;;;5.93;2.42;;;;;;;;;;10590849;28;20028;-80
2022/08/12 17:47:56;;;;;;;4.18;2.47;;;;;;;;;;10580624;28;20026;-80
2022/08/12 17:52:57;;;;;;;2.97;1.80;;;;;;;;;;10596109;28;20020;-81
2022/08/12 17:58:04;;;;;;;3.92;2.10;;;;;;;;;;10581070;28;20063;-81
2022/08/12 18:03:06;;;;;;;3.15;2.25;;;;;;;;;;10580390;28;20382;-80
2022/08/12 18:08:09;;;;;;;3.05;2.35;;;;;;;;;;10582805;28;20056;-81
2022/08/12 18:13:11;;;;;;;4.18;2.10;;;;;;;;;;10582406;28;20099;-81
2022/08/12 18:18:15;;;;;;;3.75;2.70;;;;;;;;;;10580384;28;20165;-81
2022/08/12 18:23:16;;;;;;;3.38;2.20;;;;;;;;;;10577530;28;20019;-81
2022/08/12 18:28:20;;;;;;;3.50;2.38;;;;;;;;;;10573499;28;20062;-81
2022/08/12 18:33:25;;;;;;;3.97;2.42;;;;;;;;;;10576665;28;20039;-82
2022/08/12 18:38:26;;;;;;;4.20;2.70;;;;;;;;;;10575582;28;20111;-80
2022/08/12 18:43:27;;;;;;;3.53;2.63;;;;;;;;;;10570075;28;20031;-80
2022/08/12 18:48:30;;;;;;;3.47;2.50;;;;;;;;;;10590000;28;20027;-80
2022/08/12 18:53:34;;;;;;;5.47;2.45;;;;;;;;;;10589470;28;20153;-81
2022/08/12 18:58:48;;;;;;;4.82;3.00;;;;;;;;;;10570516;28;20020;-81
2022/08/12 19:03:59;;;;;;;6.88;3.05;;;;;;;;;;10571120;28;20042;-80
2022/08/12 19:09:00;;;;;;;4.32;2.97;;;;;;;;;;10577410;28;20055;-80
2022/08/12 19:14:24;;;;;;;4.35;2.70;;;;;;;;;;10577023;28;20119;-81
2022/08/12 19:19:25;;;;;;;4.68;2.70;;;;;;;;;;10577855;28;20024;-81
